Latest Weather Observations for Jervois

IDD60801

Issued at 10:11 pm CST Sunday 21 July 2019 (issued every 10 minutes, with the page automatically refreshed every 10 minutes)

About weather observations | Map of weather stations | Latest weather observations for NT | Other Formats
Station Details ID: 015602 Name: JERVOIS Lat: -22.95 Lon: 136.14 Height: 328.0 m
Data from the previous 72 hours. | See also: Recent months at Jervois
Date/Time
CST
Temp
°C
App
Temp
°C
Dew
Point
°C
Rel
Hum
%
Delta-T
°C
Wind Press
QNH
hPa
Press
MSL
hPa
Rain since
9am
mm
Dir  Spd
km/h
Gust
km/h
Spd
kts
Gust
kts
21/10:00pm 12.4 9.5 1.7 48 4.7 SSE 6 7 3 4 1018.4 1018.1 0.0
21/09:30pm 13.6 10.6 1.9 45 5.2 SSE 7 11 4 6 1018.4 1018.1 0.0
21/09:00pm 13.8 10.4 1.8 44 5.3 SSE 9 11 5 6 1018.4 1018.1 0.0
21/08:30pm 14.6 11.6 2.2 43 5.6 SSE 7 9 4 5 1018.3 1018.0 0.0
21/08:00pm 14.4 11.5 1.7 42 5.6 SSE 6 7 3 4 1018.1 1017.8 0.0
21/07:30pm 15.8 12.8 1.9 39 6.3 SSE 7 9 4 5 1017.7 1017.5 0.0
21/07:00pm 16.6 13.6 1.1 35 6.9 SSE 6 7 3 4 1017.4 1017.2 0.0
21/06:30pm 18.7 15.6 1.2 31 8.0 SSE 7 11 4 6 1017.0 1016.8 0.0
21/06:00pm 20.1 16.6 1.0 28 8.8 SSE 9 15 5 8 1016.7 1016.5 0.0
21/05:30pm 21.3 16.5 0.5 25 9.5 SSE 15 24 8 13 1016.4 1016.2 0.0
21/05:00pm 22.2 17.1 0.7 24 10.0 SSE 17 26 9 14 1016.1 1015.9 0.0
21/04:30pm 22.8 17.7 0.6 23 10.3 S 17 24 9 13 1015.9 1015.7 0.0
21/04:00pm 22.9 17.3 0.1 22 10.5 S 19 32 10 17 1015.9 1015.7 0.0
21/03:30pm 23.1 17.6 0.9 23 10.4 S 19 28 10 15 1015.9 1015.7 0.0
21/03:00pm 22.9 17.2 0.7 23 10.3 S 20 32 11 17 1015.9 1015.7 0.0
21/02:30pm 23.3 17.7 1.0 23 10.5 S 20 30 11 16 1016.0 1015.8 0.0
21/02:00pm 23.1 17.5 0.2 22 10.6 S 19 32 10 17 1016.2 1016.0 0.0
21/01:30pm 22.3 16.2 0.2 23 10.1 SSW 22 35 12 19 1016.7 1016.5 0.0
21/01:00pm 21.4 14.9 0.0 24 9.7 SSW 24 37 13 20 1017.2 1017.0 0.0
21/12:30pm 22.3 16.6 0.8 24 10.0 SSW 20 33 11 18 1017.9 1017.6 0.0
21/12:00pm 21.3 14.2 -1.3 22 10.0 SSW 26 41 14 22 1018.2 1017.9 0.0
21/11:30am 21.7 15.6 -2.2 20 10.4 SSW 20 35 11 19 1018.4 1018.1 0.0
21/11:00am 22.2 15.3 -6.5 14 11.6 SW 22 35 12 19 1018.4 1018.1 0.0
21/10:30am 22.9 15.9 -6.9 13 12.0 SW 22 33 12 18 1018.3 1018.0 0.0
21/10:00am 22.4 16.4 -6.4 14 11.7 WSW 17 26 9 14 1018.2 1017.9 0.0
21/09:30am 19.7 14.8 -3.2 21 9.6 WSW 13 24 7 13 1018.2 1017.9 0.0
21/09:00am 16.3 10.7 -3.2 26 7.9 SW 17 30 9 16 1017.7 1017.5 0.0
21/08:30am 14.7 12.1 -1.8 32 6.8 NW 2 7 1 4 1016.6 1016.4 0.0
21/08:00am 11.1 7.2 -1.3 42 5.0 NNW 9 13 5 7 1016.4 1016.2 0.0
21/07:30am 7.2 3.7 -1.2 55 3.2 NNW 7 7 4 4 1016.2 1016.0 0.0
21/07:00am 6.3 2.9 -2.3 54 3.2 NNW 6 7 3 4 1016.1 1015.9 0.0
21/06:30am 7.1 3.5 -2.1 52 3.5 NNW 7 9 4 5 1016.0 1015.8 0.0
21/06:00am 7.0 3.4 -1.9 53 3.4 NNW 7 7 4 4 1015.7 1015.4 0.0
21/05:30am 6.3 2.7 -2.3 54 3.2 NNW 7 9 4 5 1015.6 1015.3 0.0
21/05:00am 7.7 4.3 -2.0 50 3.7 NNW 6 7 3 4 1015.5 1015.2 0.0
21/04:30am 7.4 3.8 -2.3 50 3.7 NNW 7 9 4 5 1015.4 1015.1 0.0
21/04:00am 8.0 4.5 -2.6 47 4.0 NNW 6 9 3 5 1015.6 1015.3 0.0
21/03:30am 8.6 4.9 -2.9 44 4.3 NNW 7 9 4 5 1015.7 1015.4 0.0
21/03:00am 10.3 6.2 -3.0 39 5.1 NNW 9 9 5 5 1015.7 1015.4 0.0
21/02:30am 10.9 6.8 -3.2 37 5.4 NNW 9 11 5 6 1015.8 1015.5 0.0
21/02:00am 11.5 7.8 -3.0 36 5.6 NW 7 11 4 6 1016.1 1015.9 0.0
21/01:30am 10.5 5.7 -2.8 39 5.1 N 13 15 7 8 1016.2 1016.0 0.0
21/01:00am 10.4 5.6 -2.6 40 5.0 N 13 15 7 8 1016.4 1016.2 0.0
21/12:30am 10.7 5.8 -3.0 38 5.3 N 13 15 7 8 1016.6 1016.4 0.0
21/12:00am 10.5 6.1 -2.5 40 5.0 N 11 13 6 7 1017.1 1016.9 0.0
 
Date/Time
CST
Temp
°C
App
Temp
°C
Dew
Point
°C
Rel
Hum
%
Delta-T
°C
Wind Press
QNH
hPa
Press
MSL
hPa
Rain since
9am
mm
Dir  Spd
km/h
Gust
km/h
Spd
kts
Gust
kts
20/11:30pm 10.9 6.8 -3.2 37 5.4 N 9 11 5 6 1017.4 1017.2 0.0
20/11:00pm 11.8 7.4 -2.8 36 5.7 N 11 11 6 6 1017.4 1017.2 0.0
20/10:30pm 12.2 7.7 -3.2 34 6.0 N 11 11 6 6 1017.5 1017.3 0.0
20/10:00pm 11.5 7.4 -3.0 36 5.6 NE 9 11 5 6 1017.5 1017.3 0.0
20/09:30pm 11.2 7.2 -2.6 38 5.4 NE 9 11 5 6 1017.4 1017.2 0.0
20/09:00pm 11.4 7.9 -2.8 37 5.5 NE 6 9 3 5 1017.5 1017.3 0.0
20/08:30pm 11.2 8.7 -3.7 35 5.7 CALM 0 0 0 0 1017.3 1017.1 0.0
20/08:00pm 11.8 9.3 -3.9 33 6.0 CALM 0 0 0 0 1017.1 1016.9 0.0
20/07:30pm 12.9 10.4 -3.8 31 6.5 CALM 0 0 0 0 1016.8 1016.6 0.0
20/07:00pm 14.4 11.6 -3.4 29 7.1 NE 2 6 1 3 1016.4 1016.2 0.0
20/06:30pm 16.9 14.4 -4.3 23 8.5 CALM 0 0 0 0 1016.1 1015.9 0.0
20/06:00pm 20.4 17.1 -4.7 18 10.3 NE 4 6 2 3 1016.0 1015.8 0.0
20/05:30pm 22.9 18.5 -6.0 14 11.8 NE 9 13 5 7 1015.8 1015.5 0.0
20/05:00pm 24.8 20.9 -6.5 12 12.9 NNW 6 9 3 5 1016.0 1015.8 0.0
20/04:30pm 24.4 20.0 -5.8 13 12.6 NE 9 17 5 9 1015.8 1015.5 0.0
20/04:00pm 24.8 20.9 -6.5 12 12.9 NW 6 13 3 7 1015.9 1015.7 0.0
20/03:30pm 24.7 20.2 -6.6 12 12.9 N 9 19 5 10 1016.2 1016.0 0.0
20/03:00pm 24.2 19.8 -5.9 13 12.5 NNW 9 15 5 8 1016.5 1016.3 0.0
20/02:30pm 23.7 19.0 -5.3 14 12.1 N 11 17 6 9 1016.9 1016.7 0.0
20/02:00pm 23.9 19.9 -5.2 14 12.2 N 7 15 4 8 1017.4 1017.2 0.0
20/01:30pm 23.3 18.5 -5.7 14 12.0 WNW 11 17 6 9 1018.0 1017.7 0.0
20/01:00pm 22.8 18.2 -4.3 16 11.5 NNW 11 19 6 10 1018.6 1018.4 0.0
20/12:30pm 22.0 17.1 -3.4 18 10.8 NNW 13 24 7 13 1019.4 1019.2 0.0
20/12:00pm 21.2 16.0 -2.6 20 10.2 NNE 15 20 8 11 1019.9 1019.7 0.0
20/11:30am 20.5 15.2 -3.2 20 10.0 NNE 15 24 8 13 1020.5 1020.3 0.0
20/11:00am 20.0 14.9 -2.3 22 9.6 NNE 15 19 8 10 1020.9 1020.7 0.0
20/10:30am 18.9 13.9 -1.5 25 8.8 NE 15 20 8 11 1021.4 1021.2 0.0
20/10:00am 17.5 12.4 -1.7 27 8.2 NNE 15 20 8 11 1021.6 1021.4 0.0
20/09:30am 15.8 11.1 -1.7 30 7.3 NE 13 17 7 9 1021.7 1021.5 0.0
20/09:00am 14.7 11.2 -1.4 33 6.7 N 7 11 4 6 1021.5 1021.3 0.0
20/08:54am 14.0 10.7 -1.6 34 6.4 N 6 9 3 5 1021.4 1021.2 0.0
20/08:30am 9.0 6.7 -2.3 45 4.3 CALM 0 0 0 0 1021.2 1021.0 0.0
20/08:00am 4.7 1.5 -3.3 56 2.8 N 4 7 2 4 1020.7 1020.5 0.0
20/07:30am 1.6 -2.2 -4.1 66 2.0 N 7 9 4 5 1020.5 1020.3 0.0
20/07:00am 0.6 -2.0 -4.6 68 1.7 CALM 0 6 0 3 1020.4 1020.2 0.0
20/06:30am 1.2 -1.7 -4.4 66 1.9 N 2 6 1 3 1020.3 1020.1 0.0
20/06:00am 0.9 -2.8 -4.7 66 1.9 N 6 7 3 4 1020.0 1019.8 0.0
20/05:30am 1.0 -1.6 -4.6 66 1.9 CALM 0 0 0 0 1019.7 1019.5 0.0
20/05:00am 1.4 -1.1 -4.4 65 2.0 CALM 0 0 0 0 1019.5 1019.3 0.0
20/04:30am 1.8 -0.8 -4.5 63 2.2 CALM 0 0 0 0 1019.5 1019.3 0.0
20/04:00am 2.2 -0.3 -4.1 63 2.1 CALM 0 0 0 0 1019.6 1019.4 0.0
20/03:30am 2.3 -0.3 -4.6 60 2.3 CALM 0 0 0 0 1019.6 1019.4 0.0
20/03:00am 2.5 -0.1 -4.7 59 2.4 CALM 0 0 0 0 1019.7 1019.5 0.0
20/02:30am 3.1 -0.2 -4.3 58 2.5 N 4 6 2 3 1019.7 1019.5 0.0
20/02:00am 4.4 0.9 -2.9 59 2.6 N 6 9 3 5 1019.9 1019.7 0.0
20/01:30am 3.7 1.2 -4.0 57 2.6 CALM 0 0 0 0 1020.0 1019.8 0.0
20/01:00am 4.3 1.9 -3.4 57 2.7 CALM 0 0 0 0 1020.1 1019.9 0.0
20/12:30am 4.8 1.5 -4.2 52 3.1 N 4 6 2 3 1020.0 1019.8 0.0
20/12:00am 5.1 1.2 -4.2 51 3.2 N 7 9 4 5 1020.1 1019.9 0.0
 
Date/Time
CST
Temp
°C
App
Temp
°C
Dew
Point
°C
Rel
Hum
%
Delta-T
°C
Wind Press
QNH
hPa
Press
MSL
hPa
Rain since
9am
mm
Dir  Spd
km/h
Gust
km/h
Spd
kts
Gust
kts
19/11:30pm 5.8 2.0 -4.1 49 3.5 NNE 7 9 4 5 1020.3 1020.1 0.0
19/11:00pm 6.6 3.0 -3.3 49 3.6 ENE 6 7 3 4 1020.4 1020.2 0.0
19/10:30pm 7.6 5.1 -3.6 45 4.1 CALM 0 0 0 0 1020.6 1020.4 0.0
19/10:00pm 8.3 5.9 -3.5 43 4.4 CALM 0 0 0 0 1020.5 1020.3 0.0
19/09:30pm 9.4 6.9 -3.8 39 4.9 CALM 0 0 0 0 1020.5 1020.3 0.0
19/09:00pm 10.3 6.6 -4.1 36 5.4 ENE 6 7 3 4 1020.4 1020.2 0.0
19/08:30pm 11.2 7.4 -4.1 34 5.8 ENE 7 9 4 5 1020.4 1020.2 0.0
19/08:00pm 11.5 7.6 -4.2 33 5.9 ENE 7 9 4 5 1020.1 1019.9 0.0
19/07:30pm 12.1 7.9 -4.1 32 6.2 ENE 9 9 5 5 1019.7 1019.5 0.0
19/07:00pm 13.1 9.2 -4.5 29 6.7 ENE 7 9 4 5 1019.5 1019.3 0.0
19/06:30pm 15.3 12.7 -5.1 24 7.9 CALM 0 0 0 0 1019.3 1019.1 0.0
19/06:00pm 18.5 14.1 -5.5 19 9.5 ENE 9 9 5 5 1019.0 1018.8 0.0
19/05:30pm 21.0 16.5 -6.6 15 11.0 ENE 9 13 5 7 1019.0 1018.8 0.0
19/05:00pm 21.9 17.5 -5.9 15 11.3 ENE 9 13 5 7 1018.9 1018.7 0.0
19/04:30pm 22.1 17.3 -5.7 15 11.4 E 11 17 6 9 1019.0 1018.8 0.0
19/04:00pm 22.5 17.3 -6.3 14 11.7 E 13 20 7 11 1019.1 1018.9 0.0
19/03:30pm 22.3 16.9 -4.7 16 11.3 ESE 15 20 8 11 1019.2 1019.0 0.0
19/03:00pm 22.4 17.7 -5.5 15 11.5 E 11 20 6 11 1019.2 1019.0 0.0
19/02:30pm 22.2 17.1 -4.8 16 11.2 ENE 13 22 7 12 1019.3 1019.1 0.0
19/02:00pm 21.4 16.4 -4.6 17 10.8 ESE 13 20 7 11 1019.6 1019.4 0.0
19/01:30pm 21.7 16.4 -3.6 18 10.7 E 15 24 8 13 1020.0 1019.8 0.0
19/01:00pm 21.4 16.6 -2.5 20 10.3 ENE 13 22 7 12 1020.7 1020.5 0.0
19/12:30pm 20.4 15.3 -2.0 22 9.7 E 15 22 8 12 1021.6 1021.4 0.0
19/12:00pm 20.2 15.1 -1.6 23 9.5 E 15 24 8 13 1022.2 1022.0 0.0
19/11:30am 20.0 14.2 -1.2 24 9.3 ENE 19 30 10 16 1022.5 1022.3 0.0
19/11:00am 19.3 12.5 -1.7 24 9.1 ENE 24 32 13 17 1022.7 1022.5 0.0
19/10:30am 18.2 12.2 -1.6 26 8.4 ENE 20 28 11 15 1023.0 1022.8 0.0
19/10:00am 17.1 11.1 -1.5 28 7.9 E 20 26 11 14 1023.4 1023.2 0.0
19/09:30am 16.1 11.5 -1.0 31 7.2 E 13 20 7 11 1023.2 1023.0 0.0
19/09:00am 14.0 9.9 -0.1 38 6.0 E 11 15 6 8 1022.9 1022.7 0.0
19/08:30am 10.5 8.5 0.0 48 4.3 CALM 0 0 0 0 1022.7 1022.5 0.0
19/08:00am 6.3 4.2 -1.1 59 2.8 CALM 0 0 0 0 1022.3 1022.1 0.0
19/07:30am 3.5 1.3 -1.4 70 1.8 CALM 0 0 0 0 1022.1 1021.9 0.0
19/07:00am 2.4 0.2 -1.7 74 1.5 CALM 0 4 0 2 1022.2 1022.0 0.0
19/06:30am 1.8 -0.9 -2.1 75 1.4 ESE 2 9 1 5 1022.0 1021.8 0.0
19/06:00am 2.1 -0.2 -2.4 72 1.6 CALM 0 0 0 0 1021.6 1021.4 0.0
19/05:30am 2.6 0.3 -2.1 71 1.7 CALM 0 0 0 0 1021.4 1021.2 0.0
19/05:00am 3.0 0.7 -2.1 69 1.8 CALM 0 0 0 0 1021.5 1021.3 0.0
19/04:30am 3.3 1.0 -2.2 67 2.0 CALM 0 0 0 0 1021.6 1021.4 0.0
19/04:00am 4.4 2.1 -2.0 63 2.3 CALM 0 0 0 0 1021.8 1021.6 0.0
19/03:30am 5.1 2.6 -1.3 63 2.4 ESE 2 6 1 3 1022.0 1021.8 0.0
19/03:00am 6.1 2.7 -1.8 57 3.0 ESE 6 7 3 4 1021.9 1021.7 0.0
19/02:30am 6.6 3.1 -1.5 56 3.1 ESE 7 9 4 5 1022.0 1021.8 0.0
19/02:00am 8.2 4.7 -1.3 51 3.7 ESE 7 9 4 5 1022.1 1021.9 0.0
19/01:30am 9.8 5.9 -1.6 45 4.5 ESE 9 11 5 6 1022.3 1022.1 0.0
19/01:00am 10.3 6.4 -1.4 44 4.7 ESE 9 11 5 6 1022.1 1021.9 0.0
19/12:30am 10.0 6.1 -1.4 45 4.5 ESE 9 11 5 6 1021.9 1021.7 0.0
19/12:00am 10.7 7.2 -1.4 43 4.8 ESE 7 11 4 6 1021.9 1021.7 0.0
 
Date/Time
CST
Temp
°C
App
Temp
°C
Dew
Point
°C
Rel
Hum
%
Delta-T
°C
Wind Press
QNH
hPa
Press
MSL
hPa
Rain since
9am
mm
Dir  Spd
km/h
Gust
km/h
Spd
kts
Gust
kts
18/11:30pm 11.0 7.2 -1.1 43 4.9 ESE 9 11 5 6 1021.7 1021.5 0.0
18/11:00pm 11.6 7.4 -0.9 42 5.1 ESE 11 15 6 8 1021.8 1021.6 0.0
18/10:30pm 11.7 7.9 -1.1 41 5.2 ESE 9 13 5 7 1021.9 1021.7 0.0

Other formats

Comma delimited format used in spreadsheet applications
http://www.bom.gov.au/fwo/IDD60801/IDD60801.94327.axf

JavaScript Object Notation format (JSON) in row-major order
http://www.bom.gov.au/fwo/IDD60801/IDD60801.94327.json

Data quality

Most of these data are generated automatically and are frequently updated. Quality checks on data are not normally performed. It is possible for incorrect values to appear. Refer to information at About Latest Weather Observations and please check the disclaimer before using these data.